createdAt,value
2018-05-12T00:00:41.018Z,32.23
2018-05-12T00:03:15.693Z,31.27
2018-05-12T00:05:49.619Z,33.83
2018-05-12T00:08:23.589Z,31.63
2018-05-12T00:10:58.473Z,34.57
2018-05-12T00:13:33.251Z,33.43
2018-05-12T00:16:07.476Z,34.70
2018-05-12T00:18:42.225Z,33.57
2018-05-12T00:21:16.895Z,32.93
2018-05-12T00:23:50.774Z,33.00
2018-05-12T00:26:25.381Z,32.17
2018-05-12T00:28:59.812Z,33.80
2018-05-12T00:31:34.027Z,32.27
2018-05-12T00:34:08.735Z,32.83
2018-05-12T00:36:42.631Z,32.43
2018-05-12T00:39:16.854Z,34.40
2018-05-12T00:41:50.761Z,33.53
2018-05-12T00:44:25.279Z,31.27
2018-05-12T00:46:59.157Z,30.67
2018-05-12T00:49:33.295Z,30.50
2018-05-12T00:52:07.111Z,31.07
2018-05-12T00:54:40.964Z,31.53
2018-05-12T00:57:14.774Z,29.60
2018-05-12T00:59:49.470Z,29.97
2018-05-12T01:02:23.107Z,30.20
2018-05-12T01:04:57.125Z,29.80
2018-05-12T01:07:32.061Z,30.87
2018-05-12T01:10:06.041Z,30.50
2018-05-12T01:12:40.078Z,30.97
2018-05-12T01:15:14.088Z,29.47
2018-05-12T01:17:48.124Z,29.57
2018-05-12T01:20:22.135Z,30.03
2018-05-12T01:22:56.049Z,31.27
2018-05-12T01:25:30.017Z,29.87
2018-05-12T01:28:04.689Z,29.40
2018-05-12T01:30:39.517Z,30.43
2018-05-12T01:33:13.497Z,28.60
2018-05-12T01:35:47.589Z,28.50
2018-05-12T01:38:22.458Z,30.80
2018-05-12T01:40:56.297Z,29.60
2018-05-12T01:43:30.897Z,27.63
2018-05-12T01:46:05.579Z,27.93
2018-05-12T01:48:39.372Z,28.60
2018-05-12T01:51:13.199Z,27.47
2018-05-12T01:53:47.020Z,28.07
2018-05-12T01:56:20.807Z,27.63
2018-05-12T01:58:54.905Z,28.77
2018-05-12T02:01:29.387Z,27.93
2018-05-12T02:04:04.071Z,25.77
2018-05-12T02:06:38.018Z,26.77
2018-05-12T02:09:11.786Z,25.97
2018-05-12T02:11:45.648Z,26.23
2018-05-12T02:14:19.482Z,26.23
2018-05-12T02:16:53.400Z,24.23
2018-05-12T02:19:27.450Z,26.53
2018-05-12T02:22:02.086Z,24.60
2018-05-12T02:24:36.030Z,23.53
2018-05-12T02:27:10.768Z,23.37
2018-05-12T02:29:45.529Z,23.50
2018-05-12T02:32:19.338Z,22.97
2018-05-12T02:34:53.316Z,23.07
2018-05-12T02:37:27.324Z,22.83
2018-05-12T02:40:02.098Z,21.60
2018-05-12T02:42:35.831Z,22.17
2018-05-12T02:45:10.500Z,21.83
2018-05-12T02:47:44.289Z,21.20
2018-05-12T02:50:18.167Z,22.70
2018-05-12T02:52:51.942Z,22.40
2018-05-12T02:55:25.844Z,22.30
2018-05-12T02:58:01.283Z,22.90
2018-05-12T03:00:36.522Z,22.63
2018-05-12T03:03:10.605Z,22.83
2018-05-12T03:05:44.431Z,23.67
2018-05-12T03:08:18.283Z,24.13
2018-05-12T03:10:52.233Z,23.63
2018-05-12T03:13:26.849Z,24.90
2018-05-12T03:16:00.645Z,24.63
2018-05-12T03:18:34.528Z,25.33
2018-05-12T03:21:08.323Z,26.73
2018-05-12T03:23:42.112Z,25.63
2018-05-12T03:26:15.938Z,25.80
2018-05-12T03:28:49.867Z,24.57
2018-05-12T03:31:23.551Z,25.43
2018-05-12T03:33:57.429Z,25.53
2018-05-12T03:36:32.112Z,26.00
2018-05-12T03:39:06.845Z,25.63
2018-05-12T03:41:40.655Z,26.13
2018-05-12T03:44:15.216Z,27.47
2018-05-12T03:46:49.111Z,27.50
2018-05-12T03:49:23.041Z,27.43
2018-05-12T03:51:57.107Z,28.27
2018-05-12T03:54:30.943Z,28.13
2018-05-12T03:57:04.674Z,27.37
2018-05-12T03:59:38.472Z,28.17
2018-05-12T04:02:12.482Z,27.53
2018-05-12T04:04:58.901Z,27.30
2018-05-12T04:07:45.445Z,27.03
2018-05-12T04:13:23.332Z,27.30
2018-05-12T04:15:57.183Z,28.20
2018-05-12T04:18:31.400Z,27.10
2018-05-12T04:21:05.448Z,30.10
2018-05-12T04:23:39.088Z,28.73
2018-05-12T04:26:13.784Z,28.20
2018-05-12T04:28:47.637Z,27.33
2018-05-12T04:31:22.049Z,28.90
2018-05-12T04:33:56.017Z,29.23
2018-05-12T04:36:30.266Z,28.97
2018-05-12T04:39:04.948Z,27.00
2018-05-12T04:41:38.838Z,30.03
2018-05-12T04:44:12.606Z,28.97
2018-05-12T04:46:46.425Z,28.23
2018-05-12T04:49:21.078Z,28.33
2018-05-12T04:51:54.955Z,29.83
2018-05-12T04:54:28.858Z,27.30
2018-05-12T04:57:02.865Z,27.43
2018-05-12T04:59:36.803Z,28.30
2018-05-12T05:02:11.450Z,27.13
2018-05-12T05:04:52.386Z,27.33
2018-05-12T05:07:26.125Z,28.53
2018-05-12T05:10:00.883Z,27.73
2018-05-12T05:12:34.717Z,28.90
2018-05-12T05:15:26.154Z,27.70
2018-05-12T05:17:59.959Z,28.03
2018-05-12T05:20:34.043Z,27.93
2018-05-12T05:23:08.860Z,27.47
2018-05-12T05:25:42.879Z,27.67
2018-05-12T05:28:17.516Z,27.73
2018-05-12T05:30:52.159Z,26.87
2018-05-12T05:33:26.793Z,27.53
2018-05-12T05:36:00.649Z,28.00
2018-05-12T05:38:34.549Z,27.23
2018-05-12T05:41:08.421Z,28.63
2018-05-12T05:43:42.464Z,26.60
2018-05-12T05:46:17.235Z,27.93
2018-05-12T05:48:51.101Z,28.70
2018-05-12T05:51:24.955Z,25.90
2018-05-12T05:53:59.635Z,26.23
2018-05-12T05:56:33.359Z,25.67
2018-05-12T05:59:07.358Z,26.50
2018-05-12T06:01:41.980Z,26.03
2018-05-12T06:04:20.251Z,25.07
2018-05-12T06:06:54.419Z,26.67
2018-05-12T06:09:28.853Z,25.77
2018-05-12T06:12:02.793Z,26.20
2018-05-12T06:14:37.445Z,25.33
2018-05-12T06:17:11.309Z,25.50
2018-05-12T06:19:45.200Z,25.63
2018-05-12T06:22:19.902Z,26.20
2018-05-12T06:24:54.632Z,25.77
2018-05-12T06:27:28.393Z,25.30
2018-05-12T06:30:02.291Z,23.90
2018-05-12T06:32:36.201Z,24.23
2018-05-12T06:35:10.688Z,25.43
2018-05-12T06:37:45.752Z,23.40
2018-05-12T06:40:19.710Z,25.40
2018-05-12T06:42:53.498Z,24.60
2018-05-12T06:45:28.190Z,24.30
2018-05-12T06:48:02.170Z,24.20
2018-05-12T06:50:35.928Z,24.67
2018-05-12T06:53:09.584Z,23.90
2018-05-12T06:55:43.433Z,24.27
2018-05-12T06:58:17.087Z,24.53
2018-05-12T07:00:51.670Z,24.67
2018-05-12T07:03:25.362Z,24.17
2018-05-12T07:05:59.198Z,24.63
2018-05-12T07:08:33.115Z,23.87
2018-05-12T07:11:06.935Z,23.77
2018-05-12T07:13:41.494Z,23.93
2018-05-12T07:16:15.317Z,23.60
2018-05-12T07:18:49.260Z,24.83
2018-05-12T07:21:23.057Z,23.33
2018-05-12T07:23:56.887Z,23.50
2018-05-12T07:26:30.756Z,23.77
2018-05-12T07:29:04.603Z,23.60
2018-05-12T07:31:38.557Z,21.63
2018-05-12T07:34:13.155Z,21.90
2018-05-12T07:36:47.124Z,22.43
2018-05-12T07:39:20.839Z,22.47
2018-05-12T07:41:54.969Z,21.87
2018-05-12T07:44:28.714Z,21.70
2018-05-12T07:47:02.687Z,19.87
2018-05-12T07:49:36.452Z,20.47
2018-05-12T07:52:10.829Z,21.37
2018-05-12T07:54:44.545Z,21.50
2018-05-12T07:57:18.433Z,18.77
2018-05-12T07:59:53.228Z,19.57
2018-05-12T08:02:21.491Z,18.40
2018-05-12T08:04:49.693Z,16.83
2018-05-12T08:07:17.915Z,16.97
2018-05-12T08:09:46.141Z,15.97
2018-05-12T08:12:14.417Z,15.67
2018-05-12T08:14:42.628Z,17.43
2018-05-12T08:17:10.932Z,15.70
2018-05-12T08:19:39.135Z,16.33
2018-05-12T08:22:07.385Z,16.27
2018-05-12T08:24:35.640Z,16.47
2018-05-12T08:27:04.068Z,16.40
2018-05-12T08:29:32.351Z,14.53
2018-05-12T08:32:04.529Z,14.80
2018-05-12T08:34:33.656Z,13.30
2018-05-12T08:37:02.240Z,13.10
2018-05-12T08:39:30.520Z,13.30
2018-05-12T08:41:58.821Z,14.27
2018-05-12T08:44:28.303Z,12.43
2018-05-12T08:46:57.519Z,11.73
2018-05-12T08:49:25.733Z,10.13
2018-05-12T08:51:53.963Z,8.57
2018-05-12T08:54:22.230Z,8.97
2018-05-12T08:56:51.201Z,8.83
2018-05-12T08:59:19.425Z,8.17
2018-05-12T09:01:47.759Z,7.97
2018-05-12T09:04:15.988Z,7.00
2018-05-12T09:06:44.203Z,6.30
2018-05-12T09:09:12.374Z,6.37
2018-05-12T09:11:40.621Z,5.83
2018-05-12T09:14:09.589Z,5.53
2018-05-12T09:16:37.803Z,4.93
2018-05-12T09:19:06.060Z,4.53
2018-05-12T09:21:35.009Z,4.57
2018-05-12T09:24:03.237Z,4.00
2018-05-12T09:26:32.546Z,3.77
2018-05-12T09:29:01.684Z,3.93
2018-05-12T09:31:30.695Z,4.50
2018-05-12T09:33:59.764Z,5.07
2018-05-12T09:36:28.038Z,3.73
2018-05-12T09:38:56.295Z,3.70
2018-05-12T09:41:25.045Z,3.83
2018-05-12T09:43:54.085Z,4.37
2018-05-12T09:46:22.303Z,5.20
2018-05-12T09:48:51.325Z,4.00
2018-05-12T09:51:19.682Z,3.20
2018-05-12T09:53:48.653Z,3.00
2018-05-12T09:56:16.884Z,3.93
2018-05-12T09:58:45.118Z,4.10
2018-05-12T10:01:13.467Z,3.90
2018-05-12T10:03:41.652Z,2.93
2018-05-12T10:06:10.711Z,2.97
2018-05-12T10:08:38.940Z,3.03
2018-05-12T10:11:07.905Z,2.73
2018-05-12T10:13:44.963Z,2.43
2018-05-12T10:16:13.652Z,2.57
2018-05-12T10:18:41.901Z,2.37
2018-05-12T10:21:10.233Z,2.60
2018-05-12T10:23:39.309Z,2.17
2018-05-12T10:26:07.571Z,2.30
2018-05-12T10:28:35.855Z,2.07
2018-05-12T10:31:04.064Z,1.90
2018-05-12T10:33:33.074Z,2.10
2018-05-12T10:36:01.301Z,1.80
2018-05-12T10:38:29.477Z,2.30
2018-05-12T10:40:58.230Z,2.27
2018-05-12T10:43:26.466Z,2.20
2018-05-12T10:45:54.707Z,2.37
2018-05-12T10:48:22.982Z,2.13
2018-05-12T10:50:52.020Z,2.60
2018-05-12T10:53:20.262Z,2.60
2018-05-12T10:55:48.500Z,2.30
2018-05-12T10:58:16.736Z,2.57
2018-05-12T11:00:44.968Z,1.97
2018-05-12T11:03:13.189Z,2.00
2018-05-12T11:05:41.449Z,2.13
2018-05-12T11:08:09.750Z,2.20
2018-05-12T11:10:38.005Z,2.17
2018-05-12T11:13:06.297Z,2.40
2018-05-12T11:15:34.519Z,2.45
2018-05-12T11:18:02.725Z,2.33
2018-05-12T11:20:30.969Z,2.20
2018-05-12T11:22:59.299Z,2.40
2018-05-12T11:25:27.634Z,1.90
2018-05-12T11:27:56.593Z,2.47
2018-05-12T11:30:24.859Z,2.67
2018-05-12T11:32:53.050Z,2.63
2018-05-12T11:35:21.337Z,2.20
2018-05-12T11:37:50.389Z,2.43
2018-05-12T11:40:18.683Z,2.23
2018-05-12T11:42:47.606Z,2.57
2018-05-12T11:45:16.569Z,2.10
2018-05-12T11:47:44.786Z,3.00
2018-05-12T11:50:13.843Z,3.23
2018-05-12T11:52:42.840Z,2.70
2018-05-12T11:55:11.111Z,2.97
2018-05-12T11:57:39.299Z,2.37
2018-05-12T12:00:08.290Z,2.70
2018-05-12T12:02:37.300Z,2.83
2018-05-12T12:05:06.243Z,2.73
2018-05-12T12:07:34.438Z,3.30
2018-05-12T12:10:02.906Z,3.30
2018-05-12T12:12:31.102Z,3.17
2018-05-12T12:15:00.083Z,2.57
2018-05-12T12:17:28.253Z,2.20
2018-05-12T12:19:56.484Z,2.60
2018-05-12T12:22:24.717Z,2.87
2018-05-12T12:24:53.837Z,3.33
2018-05-12T12:27:22.049Z,3.53
2018-05-12T12:29:50.270Z,2.70
2018-05-12T12:32:19.239Z,2.63
2018-05-12T12:34:47.462Z,2.50
2018-05-12T12:37:15.692Z,2.50
2018-05-12T12:39:45.555Z,2.57
2018-05-12T12:42:13.796Z,2.80
2018-05-12T12:44:42.779Z,3.13
2018-05-12T12:47:11.825Z,4.07
2018-05-12T12:49:40.063Z,4.37
2018-05-12T12:52:09.116Z,3.50
2018-05-12T12:54:37.342Z,3.50
2018-05-12T12:57:05.563Z,3.70
2018-05-12T12:59:33.764Z,3.63
2018-05-12T13:02:02.833Z,4.53
2018-05-12T13:04:31.034Z,3.40
2018-05-12T13:07:00.065Z,3.00
2018-05-12T13:09:28.292Z,3.20
2018-05-12T13:11:56.581Z,3.43
2018-05-12T13:14:25.545Z,3.50
2018-05-12T13:16:53.781Z,1.97
2018-05-12T13:19:22.030Z,2.33
2018-05-12T13:21:50.211Z,2.50
2018-05-12T13:24:18.444Z,2.60
2018-05-12T13:26:46.692Z,2.47
2018-05-12T13:29:14.946Z,2.50
2018-05-12T13:31:43.146Z,2.53
2018-05-12T13:34:11.347Z,3.10
2018-05-12T13:36:40.336Z,3.00
2018-05-12T13:39:08.586Z,2.90
2018-05-12T13:41:36.853Z,2.70
2018-05-12T13:44:05.051Z,3.00
2018-05-12T13:46:33.243Z,2.53
2018-05-12T13:49:01.527Z,2.23
2018-05-12T13:51:29.755Z,2.50
2018-05-12T13:53:57.952Z,2.20
2018-05-12T13:56:27.263Z,2.70
2018-05-12T13:58:56.342Z,3.20
2018-05-12T14:01:24.735Z,3.23
2018-05-12T14:03:53.953Z,3.10
2018-05-12T14:06:22.165Z,3.20
2018-05-12T14:08:50.401Z,3.00
2018-05-12T14:11:18.676Z,2.43
2018-05-12T14:13:46.884Z,2.90
2018-05-12T14:16:15.110Z,2.90
2018-05-12T14:18:44.158Z,3.37
2018-05-12T14:21:12.736Z,3.50
2018-05-12T14:23:40.990Z,3.43
2018-05-12T14:26:09.232Z,3.23
2018-05-12T14:28:38.218Z,3.37
2018-05-12T14:31:07.161Z,3.00
2018-05-12T14:33:36.151Z,3.33
2018-05-12T14:36:04.334Z,3.37
2018-05-12T14:38:32.571Z,3.03
2018-05-12T14:41:00.775Z,3.83
2018-05-12T14:43:29.044Z,3.30
2018-05-12T14:45:57.296Z,3.60
2018-05-12T14:48:25.568Z,3.47
2018-05-12T14:50:53.963Z,3.80
2018-05-12T14:53:22.292Z,4.10
2018-05-12T14:55:51.275Z,3.87
2018-05-12T14:58:19.490Z,3.67
2018-05-12T15:00:47.736Z,4.13
2018-05-12T15:03:16.754Z,3.97
2018-05-12T15:05:44.976Z,3.67
2018-05-12T15:08:13.221Z,3.20
2018-05-12T15:10:41.454Z,3.10
2018-05-12T15:13:10.526Z,3.90
2018-05-12T15:15:38.776Z,3.67
2018-05-12T15:18:07.128Z,3.70
2018-05-12T15:20:35.488Z,3.83
2018-05-12T15:23:04.459Z,4.87
2018-05-12T15:25:33.497Z,5.23
2018-05-12T15:28:01.836Z,4.23
2018-05-12T15:30:32.595Z,4.47
2018-05-12T15:33:00.812Z,3.87
2018-05-12T15:35:29.020Z,8.03
2018-05-12T15:37:57.972Z,5.70
2018-05-12T15:40:27.088Z,5.13
2018-05-12T15:42:56.189Z,3.97
2018-05-12T15:45:24.361Z,4.97
2018-05-12T15:47:53.349Z,5.13
2018-05-12T15:50:22.373Z,4.60
2018-05-12T15:52:50.706Z,5.00
2018-05-12T15:55:18.952Z,4.70
2018-05-12T15:57:47.159Z,5.07
2018-05-12T16:00:15.403Z,5.10
2018-05-12T16:02:43.574Z,4.60
2018-05-12T16:05:11.832Z,4.70
2018-05-12T16:07:40.062Z,4.23
2018-05-12T16:10:09.445Z,5.87
2018-05-12T16:12:37.789Z,5.03
2018-05-12T16:15:06.068Z,4.77
2018-05-12T16:17:34.336Z,5.97
2018-05-12T16:20:02.571Z,4.87
2018-05-12T16:22:30.986Z,4.23
2018-05-12T16:24:59.171Z,4.00
2018-05-12T16:27:27.384Z,4.33
2018-05-12T16:29:56.674Z,4.17
2018-05-12T16:32:25.713Z,5.40
2018-05-12T16:34:53.945Z,5.73
2018-05-12T16:37:22.336Z,4.90
2018-05-12T16:39:50.589Z,5.60
2018-05-12T16:42:19.646Z,7.53
2018-05-12T16:44:47.912Z,8.23
2018-05-12T16:47:16.169Z,7.63
2018-05-12T16:49:44.439Z,8.47
2018-05-12T16:52:12.649Z,6.50
2018-05-12T16:54:40.880Z,7.00
2018-05-12T16:57:09.861Z,7.43
2018-05-12T16:59:38.819Z,6.50
2018-05-12T17:02:07.124Z,7.17
2018-05-12T17:04:36.111Z,7.30
2018-05-12T17:07:05.103Z,7.93
2018-05-12T17:09:34.155Z,7.07
2018-05-12T17:12:03.131Z,8.27
2018-05-12T17:14:31.356Z,8.50
2018-05-12T17:17:00.424Z,9.27
2018-05-12T17:19:28.663Z,9.13
2018-05-12T17:21:56.883Z,10.07
2018-05-12T17:24:25.092Z,9.73
2018-05-12T17:26:53.303Z,11.20
2018-05-12T17:29:21.969Z,11.53
2018-05-12T17:31:50.523Z,12.67
2018-05-12T17:34:19.526Z,11.80
2018-05-12T17:36:48.489Z,12.97
2018-05-12T17:39:17.465Z,12.83
2018-05-12T17:41:45.698Z,11.73
2018-05-12T17:44:14.141Z,13.40
2018-05-12T17:46:42.994Z,15.00
2018-05-12T17:49:11.193Z,14.13
2018-05-12T17:51:40.151Z,13.60
2018-05-12T17:54:08.354Z,13.53
2018-05-12T17:56:36.605Z,13.70
2018-05-12T17:59:04.809Z,14.47
2018-05-12T18:01:33.763Z,13.53
2018-05-12T18:04:02.043Z,13.53
2018-05-12T18:06:30.250Z,15.30
2018-05-12T18:08:58.877Z,14.53
2018-05-12T18:11:27.786Z,13.10
2018-05-12T18:13:55.904Z,12.53
2018-05-12T18:16:24.219Z,12.70
2018-05-12T18:18:52.341Z,12.60
2018-05-12T18:21:21.333Z,12.10
2018-05-12T18:23:50.300Z,11.07
2018-05-12T18:26:18.483Z,11.30
2018-05-12T18:28:46.704Z,11.37
2018-05-12T18:31:14.915Z,12.07
2018-05-12T18:33:43.128Z,12.33
2018-05-12T18:36:12.097Z,13.20
2018-05-12T18:38:40.390Z,11.70
2018-05-12T18:41:09.307Z,12.93
2018-05-12T18:43:37.576Z,13.83
2018-05-12T18:46:05.822Z,12.60
2018-05-12T18:48:34.871Z,13.27
2018-05-12T18:51:03.077Z,11.53
2018-05-12T18:53:31.303Z,11.17
2018-05-12T18:55:59.509Z,11.53
2018-05-12T18:58:27.716Z,12.43
2018-05-12T19:00:56.813Z,11.80
2018-05-12T19:03:25.854Z,12.63
2018-05-12T19:05:54.096Z,11.93
2018-05-12T19:08:22.502Z,11.63
2018-05-12T19:10:50.646Z,11.53
2018-05-12T19:13:19.059Z,12.20
2018-05-12T19:15:47.678Z,12.40
2018-05-12T19:18:15.931Z,11.73
2018-05-12T19:20:44.177Z,12.07
2018-05-12T19:23:12.389Z,11.50
2018-05-12T19:25:40.628Z,12.10
2018-05-12T19:28:08.834Z,10.90
2018-05-12T19:30:37.066Z,12.13
2018-05-12T19:33:05.300Z,11.00
2018-05-12T19:35:34.270Z,10.93
2018-05-12T19:38:02.518Z,10.70
2018-05-12T19:40:31.233Z,11.13
2018-05-12T19:43:00.158Z,10.37
2018-05-12T19:45:29.720Z,10.80
2018-05-12T19:47:59.654Z,10.57
2018-05-12T19:50:28.166Z,10.37
2018-05-12T19:52:56.963Z,10.50
2018-05-12T19:55:26.408Z,10.17
2018-05-12T19:57:55.395Z,9.50
2018-05-12T20:00:24.184Z,9.60
2018-05-12T20:02:53.504Z,9.57
2018-05-12T20:05:21.817Z,10.50
2018-05-12T20:07:50.517Z,9.90
2018-05-12T20:10:20.950Z,10.47
2018-05-12T20:12:50.341Z,10.33
2018-05-12T20:15:20.700Z,10.33
2018-05-12T20:17:51.529Z,10.43
2018-05-12T20:20:21.797Z,10.67
2018-05-12T20:22:50.134Z,11.37
2018-05-12T20:25:18.465Z,10.77
2018-05-12T20:27:46.734Z,10.37
2018-05-12T20:30:14.929Z,10.10
2018-05-12T20:32:43.199Z,10.47
2018-05-12T20:35:11.430Z,9.47
2018-05-12T20:37:39.669Z,9.90
2018-05-12T20:40:07.914Z,9.87
2018-05-12T20:42:36.123Z,9.83
2018-05-12T20:45:04.372Z,9.57
2018-05-12T20:47:32.644Z,9.77
2018-05-12T20:50:00.876Z,10.07
2018-05-12T20:52:29.957Z,10.60
2018-05-12T20:54:59.152Z,9.07
2018-05-12T20:57:27.724Z,10.23
2018-05-12T20:59:58.748Z,9.30
2018-05-12T21:02:26.957Z,10.40
2018-05-12T21:04:55.908Z,10.50
2018-05-12T21:07:24.138Z,9.63
2018-05-12T21:09:52.374Z,10.30
2018-05-12T21:12:20.684Z,10.83
2018-05-12T21:14:49.756Z,11.53
2018-05-12T21:17:18.914Z,10.27
2018-05-12T21:19:47.113Z,10.83
2018-05-12T21:22:15.327Z,11.23
2018-05-12T21:24:43.520Z,10.93
2018-05-12T21:27:11.733Z,9.83
2018-05-12T21:29:39.922Z,10.07
2018-05-12T21:32:08.917Z,9.83
2018-05-12T21:34:37.927Z,10.67
2018-05-12T21:37:06.170Z,10.00
2018-05-12T21:39:34.375Z,9.93
2018-05-12T21:42:02.571Z,10.60
2018-05-12T21:44:30.789Z,9.80
2018-05-12T21:46:59.131Z,9.63
2018-05-12T21:49:28.196Z,9.90
2018-05-12T21:51:56.412Z,9.17
2018-05-12T21:54:25.089Z,10.30
2018-05-12T21:56:53.418Z,10.27
2018-05-12T21:59:22.362Z,8.73
2018-05-12T22:01:50.625Z,10.13
2018-05-12T22:04:18.825Z,9.50
2018-05-12T22:06:47.021Z,9.40
2018-05-12T22:09:16.055Z,9.70
2018-05-12T22:11:44.293Z,9.30
2018-05-12T22:14:13.098Z,9.40
2018-05-12T22:16:41.361Z,8.50
2018-05-12T22:19:10.354Z,9.53
2018-05-12T22:21:38.631Z,8.40
2018-05-12T22:24:07.589Z,8.80
2018-05-12T22:26:35.895Z,8.90
2018-05-12T22:29:04.863Z,12.77
2018-05-12T22:31:34.126Z,9.93
2018-05-12T22:34:02.435Z,11.40
2018-05-12T22:36:30.740Z,16.83
2018-05-12T22:38:58.995Z,19.90
2018-05-12T22:41:28.099Z,22.23
2018-05-12T22:43:57.086Z,18.53
2018-05-12T22:46:26.081Z,17.03
2018-05-12T22:48:55.087Z,18.17
2018-05-12T22:51:23.321Z,17.30
2018-05-12T22:53:51.609Z,14.40
2018-05-12T22:56:19.808Z,14.50
2018-05-12T22:58:48.035Z,14.87
2018-05-12T23:01:16.271Z,17.20
2018-05-12T23:03:44.547Z,17.80
2018-05-12T23:06:12.778Z,16.43
2018-05-12T23:08:40.979Z,14.77
2018-05-12T23:11:09.216Z,15.37
2018-05-12T23:13:37.393Z,13.27
2018-05-12T23:16:05.845Z,13.53
2018-05-12T23:18:35.175Z,9.00
2018-05-12T23:21:03.398Z,9.40
2018-05-12T23:23:31.599Z,9.53
2018-05-12T23:25:59.859Z,10.37
2018-05-12T23:28:28.353Z,9.83
2018-05-12T23:30:56.997Z,10.33
2018-05-12T23:33:25.667Z,10.53
2018-05-12T23:35:54.841Z,11.63
2018-05-12T23:38:23.239Z,10.47
2018-05-12T23:41:04.768Z,11.70
2018-05-12T23:43:33.271Z,12.20
2018-05-12T23:46:04.963Z,11.00
2018-05-12T23:48:34.565Z,11.40
2018-05-12T23:51:06.588Z,11.60
2018-05-12T23:59:45.897Z,12.67
